createdAt,value
2023-03-04T00:00:57.525Z,101199.00
2023-03-04T00:03:24.241Z,101197.31
2023-03-04T00:05:50.810Z,101207.88
2023-03-04T00:08:17.394Z,101200.81
2023-03-04T00:10:44.187Z,101206.31
2023-03-04T00:13:10.629Z,101185.06
2023-03-04T00:15:37.241Z,101201.66
2023-03-04T00:18:03.973Z,101213.31
2023-03-04T00:20:30.518Z,101217.00
2023-03-04T00:22:57.049Z,101214.16
2023-03-04T00:25:23.617Z,101203.47
2023-03-04T00:27:50.219Z,101201.66
2023-03-04T00:30:17.072Z,101202.31
2023-03-04T00:32:43.663Z,101202.88
2023-03-04T00:35:10.344Z,101199.78
2023-03-04T00:37:36.966Z,101189.28
2023-03-04T00:40:04.072Z,101194.28
2023-03-04T00:42:30.640Z,101192.63
2023-03-04T00:44:57.228Z,101189.59
2023-03-04T00:47:26.131Z,101197.25
2023-03-04T00:49:52.682Z,101187.44
2023-03-04T00:52:19.302Z,101184.59
2023-03-04T00:54:46.117Z,101196.56
2023-03-04T00:57:12.659Z,101190.09
2023-03-04T00:59:40.817Z,101198.53
2023-03-04T01:02:07.452Z,101185.19
2023-03-04T01:04:34.020Z,101188.53
2023-03-04T01:07:00.757Z,101184.88
2023-03-04T01:09:27.484Z,101196.19
2023-03-04T01:11:54.170Z,101186.19
2023-03-04T01:14:20.833Z,101182.50
2023-03-04T01:16:48.999Z,101184.16
2023-03-04T01:19:16.179Z,101171.84
2023-03-04T01:21:42.896Z,101176.81
2023-03-04T01:24:09.470Z,101167.81
2023-03-04T01:26:36.103Z,101165.78
2023-03-04T01:29:03.456Z,101163.78
2023-03-04T01:31:30.202Z,101154.78
2023-03-04T01:33:56.756Z,101163.28
2023-03-04T01:36:23.370Z,101142.56
2023-03-04T01:38:49.944Z,101145.22
2023-03-04T01:41:19.482Z,101139.72
2023-03-04T01:43:46.068Z,101144.38
2023-03-04T01:46:15.209Z,101138.03
2023-03-04T01:48:42.253Z,101126.38
2023-03-04T01:51:14.268Z,101128.53
2023-03-04T01:53:41.020Z,101133.19
2023-03-04T01:56:13.651Z,101130.19
2023-03-04T01:58:40.310Z,101122.63
2023-03-04T02:01:06.882Z,101111.13
2023-03-04T02:03:33.454Z,101113.81
2023-03-04T02:06:02.714Z,101118.13
2023-03-04T02:08:29.414Z,101103.94
2023-03-04T02:11:01.860Z,101096.59
2023-03-04T02:13:28.526Z,101093.09
2023-03-04T02:15:55.206Z,101092.09
2023-03-04T02:18:24.901Z,101082.91
2023-03-04T02:20:54.404Z,101097.25
2023-03-04T02:23:45.352Z,101083.66
2023-03-04T02:26:18.403Z,101086.69
2023-03-04T02:28:45.756Z,101077.38
2023-03-04T02:31:30.270Z,101077.31
2023-03-04T02:34:00.426Z,101075.19
2023-03-04T02:36:28.293Z,101080.53
2023-03-04T02:38:55.999Z,101069.84
2023-03-04T02:41:26.334Z,101070.28
2023-03-04T02:43:55.093Z,101071.13
2023-03-04T02:46:21.831Z,101064.94
2023-03-04T02:48:48.722Z,101070.78
2023-03-04T02:51:15.430Z,101068.78
2023-03-04T02:53:42.049Z,101064.25
2023-03-04T02:56:08.816Z,101063.44
2023-03-04T02:58:35.289Z,101068.38
2023-03-04T03:01:01.867Z,101068.41
2023-03-04T03:03:28.579Z,101063.88
2023-03-04T03:05:55.305Z,101063.88
2023-03-04T03:08:21.905Z,101063.06
2023-03-04T03:10:48.449Z,101056.72
2023-03-04T03:13:15.041Z,101052.00
2023-03-04T03:15:42.542Z,101052.88
2023-03-04T03:18:10.972Z,101046.66
2023-03-04T03:20:37.812Z,101042.03
2023-03-04T03:23:04.369Z,101046.75
2023-03-04T03:25:31.096Z,101049.31
2023-03-04T03:27:57.573Z,101041.03
2023-03-04T03:30:24.128Z,101043.59
2023-03-04T03:32:50.849Z,101045.44
2023-03-04T03:35:17.483Z,101043.59
2023-03-04T03:37:44.140Z,101048.09
2023-03-04T03:40:11.856Z,101044.41
2023-03-04T03:42:38.420Z,101044.59
2023-03-04T03:45:05.410Z,101045.91
2023-03-04T03:47:32.034Z,101026.38
2023-03-04T03:49:58.592Z,101042.22
2023-03-04T03:52:25.329Z,101042.84
2023-03-04T03:54:51.960Z,101038.56
2023-03-04T03:57:18.541Z,101051.53
2023-03-04T03:59:45.152Z,101037.16
2023-03-04T04:02:11.739Z,101028.16
2023-03-04T04:04:38.286Z,101036.31
2023-03-04T04:07:04.864Z,101029.78
2023-03-04T04:09:31.486Z,101030.63
2023-03-04T04:11:58.283Z,101019.75
2023-03-04T04:14:24.803Z,101028.16
2023-03-04T04:19:24.960Z,101031.09
2023-03-04T04:21:51.421Z,101023.63
2023-03-04T04:24:19.612Z,101021.72
2023-03-04T04:26:46.302Z,101026.41
2023-03-04T04:29:14.776Z,101020.06
2023-03-04T04:31:41.313Z,101024.72
2023-03-04T04:34:07.842Z,101027.41
2023-03-04T04:36:34.421Z,101026.22
2023-03-04T04:39:00.963Z,101024.53
2023-03-04T04:41:31.970Z,101019.66
2023-03-04T04:43:58.388Z,101005.03
2023-03-04T04:46:24.918Z,101009.00
2023-03-04T04:48:51.453Z,101011.66
2023-03-04T04:51:18.156Z,101010.66
2023-03-04T04:53:44.912Z,101006.97
2023-03-04T04:56:12.853Z,101011.00
2023-03-04T04:58:39.628Z,101011.13
2023-03-04T05:01:06.236Z,100999.31
2023-03-04T05:03:34.561Z,101007.22
2023-03-04T05:06:01.461Z,101001.63
2023-03-04T05:08:27.973Z,101005.94
2023-03-04T05:10:54.533Z,101008.59
2023-03-04T05:13:21.197Z,100997.09
2023-03-04T05:15:48.237Z,101009.66
2023-03-04T05:18:14.712Z,101004.31
2023-03-04T05:20:41.192Z,101002.44
2023-03-04T05:23:07.648Z,101002.44
2023-03-04T05:25:34.160Z,100997.91
2023-03-04T05:28:02.369Z,100997.91
2023-03-04T05:30:28.846Z,100987.63
2023-03-04T05:32:55.265Z,100994.63
2023-03-04T05:35:21.823Z,100996.28
2023-03-04T05:37:48.421Z,100992.97
2023-03-04T05:40:14.956Z,100994.81
2023-03-04T05:42:41.393Z,100993.97
2023-03-04T05:45:08.457Z,100989.66
2023-03-04T05:47:34.887Z,100995.16
2023-03-04T05:50:01.332Z,100994.34
2023-03-04T05:52:28.964Z,101003.34
2023-03-04T05:54:55.473Z,100998.41
2023-03-04T05:57:22.039Z,101002.72
2023-03-04T05:59:50.046Z,100991.38
2023-03-04T06:02:16.643Z,100994.44
2023-03-04T06:04:43.162Z,100990.75
2023-03-04T06:07:09.653Z,100994.44
2023-03-04T06:09:36.198Z,100987.44
2023-03-04T06:12:02.762Z,100991.09
2023-03-04T06:14:29.318Z,100991.09
2023-03-04T06:16:55.867Z,100985.94
2023-03-04T06:19:22.753Z,101000.13
2023-03-04T06:21:49.185Z,100998.88
2023-03-04T06:24:15.736Z,100989.44
2023-03-04T06:26:42.167Z,100988.81
2023-03-04T06:29:09.013Z,100994.16
2023-03-04T06:31:35.453Z,100999.22
2023-03-04T06:34:01.911Z,100998.50
2023-03-04T06:36:28.426Z,100993.34
2023-03-04T06:38:54.960Z,101000.50
2023-03-04T06:41:21.565Z,101006.84
2023-03-04T06:43:48.033Z,101004.16
2023-03-04T06:46:14.525Z,101008.69
2023-03-04T06:48:41.006Z,101007.88
2023-03-04T06:51:09.394Z,101007.88
2023-03-04T06:53:36.229Z,101009.88
2023-03-04T06:56:02.658Z,101011.94
2023-03-04T06:58:29.163Z,101002.16
2023-03-04T07:00:55.766Z,101008.50
2023-03-04T07:03:24.661Z,101009.50
2023-03-04T07:05:51.191Z,101006.03
2023-03-04T07:08:17.674Z,101004.16
2023-03-04T07:10:44.174Z,100999.69
2023-03-04T07:13:10.683Z,100995.16
2023-03-04T07:15:37.824Z,100996.00
2023-03-04T07:18:04.364Z,101000.50
2023-03-04T07:20:31.839Z,101001.16
2023-03-04T07:22:58.330Z,100991.09
2023-03-04T07:25:24.804Z,100997.09
2023-03-04T07:27:51.277Z,100991.56
2023-03-04T07:30:17.990Z,100998.19
2023-03-04T07:32:44.521Z,101009.19
2023-03-04T07:35:11.059Z,101003.94
2023-03-04T07:37:37.804Z,101000.16
2023-03-04T07:40:04.634Z,101006.41
2023-03-04T07:42:31.034Z,101004.72
2023-03-04T07:44:57.849Z,101003.75
2023-03-04T07:47:24.280Z,101004.88
2023-03-04T07:49:50.864Z,100993.94
2023-03-04T07:52:17.381Z,100998.47
2023-03-04T07:54:43.849Z,100995.81
2023-03-04T07:57:10.349Z,101002.16
2023-03-04T07:59:36.826Z,101005.84
2023-03-04T08:02:03.326Z,101005.03
2023-03-04T08:04:29.848Z,101000.69
2023-03-04T08:06:56.370Z,101001.69
2023-03-04T08:09:22.954Z,101009.72
2023-03-04T08:11:49.522Z,101000.88
2023-03-04T08:14:16.128Z,100993.88
2023-03-04T08:16:42.604Z,101003.28
2023-03-04T08:19:09.564Z,100983.16
2023-03-04T08:21:38.913Z,100987.50
2023-03-04T08:24:08.965Z,100986.47
2023-03-04T08:26:41.408Z,100999.28
2023-03-04T08:29:10.313Z,100983.44
2023-03-04T08:31:37.271Z,100987.78
2023-03-04T08:34:07.629Z,100991.09
2023-03-04T08:36:34.734Z,100987.41
2023-03-04T08:39:04.261Z,100991.53
2023-03-04T08:41:30.787Z,100992.00
2023-03-04T08:43:57.457Z,100991.63
2023-03-04T08:46:23.947Z,100991.25
2023-03-04T08:48:50.401Z,100993.16
2023-03-04T08:51:17.298Z,101002.88
2023-03-04T08:53:44.311Z,101001.66
2023-03-04T08:56:11.238Z,100996.13
2023-03-04T08:58:37.788Z,100993.06
2023-03-04T09:01:05.238Z,100996.38
2023-03-04T09:03:31.772Z,100998.03
2023-03-04T09:05:58.338Z,101004.03
2023-03-04T09:08:25.325Z,100990.66
2023-03-04T09:10:54.034Z,101003.00
2023-03-04T09:13:21.694Z,100995.16
2023-03-04T09:15:51.285Z,100992.31
2023-03-04T09:18:19.744Z,100981.63
2023-03-04T09:20:46.914Z,100981.63
2023-03-04T09:23:14.361Z,100990.25
2023-03-04T09:25:41.995Z,100982.88
2023-03-04T09:28:08.524Z,100988.03
2023-03-04T09:30:35.537Z,100989.50
2023-03-04T09:33:02.128Z,100980.47
2023-03-04T09:35:30.107Z,100978.41
2023-03-04T09:37:58.008Z,100970.41
2023-03-04T09:40:46.712Z,100970.34
2023-03-04T09:43:22.629Z,100976.88
2023-03-04T09:45:56.603Z,100978.56
2023-03-04T09:48:27.539Z,100974.06
2023-03-04T09:51:11.061Z,100972.66
2023-03-04T09:53:45.644Z,100981.94
2023-03-04T09:56:14.356Z,100980.69
2023-03-04T09:58:49.632Z,100975.75
2023-03-04T10:01:42.700Z,100977.28
2023-03-04T10:04:22.286Z,100975.81
2023-03-04T10:06:54.501Z,100972.72
2023-03-04T10:09:45.832Z,100977.94
2023-03-04T10:12:15.252Z,100972.97
2023-03-04T10:14:51.438Z,100973.38
2023-03-04T10:17:34.530Z,100977.72
2023-03-04T10:20:11.269Z,100971.38
2023-03-04T10:22:49.804Z,100964.78
2023-03-04T10:25:25.363Z,100968.88
2023-03-04T10:27:56.485Z,100977.94
2023-03-04T10:30:45.094Z,100971.81
2023-03-04T10:33:17.233Z,100976.91
2023-03-04T10:35:49.507Z,100978.13
2023-03-04T10:38:16.604Z,100976.25
2023-03-04T10:40:44.592Z,100977.53
2023-03-04T10:43:20.191Z,100981.13
2023-03-04T10:45:48.987Z,100972.88
2023-03-04T10:48:27.546Z,100983.06
2023-03-04T10:50:54.881Z,100970.06
2023-03-04T10:53:33.615Z,100978.16
2023-03-04T10:56:00.395Z,100971.53
2023-03-04T10:58:26.770Z,100969.91
2023-03-04T11:01:03.826Z,100975.34
2023-03-04T11:03:31.970Z,100962.97
2023-03-04T11:06:11.667Z,100969.63
2023-03-04T11:08:41.063Z,100960.56
2023-03-04T11:11:44.478Z,100959.88
2023-03-04T11:14:36.839Z,100953.75
2023-03-04T11:17:15.701Z,100951.69
2023-03-04T11:19:45.418Z,100940.97
2023-03-04T11:22:16.782Z,100949.03
2023-03-04T11:24:43.779Z,100952.16
2023-03-04T11:27:20.766Z,100939.22
2023-03-04T11:29:58.216Z,100949.09
2023-03-04T11:32:28.800Z,100957.19
2023-03-04T11:35:21.395Z,100952.25
2023-03-04T11:38:02.523Z,100944.03
2023-03-04T11:40:38.650Z,100940.94
2023-03-04T11:43:17.869Z,100944.25
2023-03-04T11:45:56.142Z,100940.56
2023-03-04T11:48:46.735Z,100945.72
2023-03-04T11:51:19.360Z,100950.25
2023-03-04T11:54:07.252Z,100946.75
2023-03-04T11:56:43.256Z,100938.78
2023-03-04T11:59:20.375Z,100942.88
2023-03-04T12:02:11.198Z,100938.38
2023-03-04T12:04:59.855Z,100923.09
2023-03-04T12:07:40.070Z,100927.69
2023-03-04T12:10:18.405Z,100919.84
2023-03-04T12:13:09.594Z,100926.28
2023-03-04T12:16:11.487Z,100916.59
2023-03-04T12:18:48.729Z,100932.69
2023-03-04T12:21:33.740Z,100934.78
2023-03-04T12:24:27.896Z,100923.41
2023-03-04T12:27:19.640Z,100921.53
2023-03-04T12:30:20.433Z,100915.97
2023-03-04T12:33:05.253Z,100904.41
2023-03-04T12:35:52.514Z,100909.56
2023-03-04T12:38:32.216Z,100905.41
2023-03-04T12:40:58.594Z,100901.47
2023-03-04T12:43:45.906Z,100897.56
2023-03-04T12:46:24.779Z,100904.59
2023-03-04T12:49:09.124Z,100904.59
2023-03-04T12:51:40.425Z,100893.88
2023-03-04T12:54:39.010Z,100886.41
2023-03-04T12:57:13.588Z,100884.78
2023-03-04T13:00:09.140Z,100883.13
2023-03-04T13:02:59.909Z,100878.56
2023-03-04T13:05:35.460Z,100883.94
2023-03-04T13:08:23.562Z,100890.75
2023-03-04T13:10:51.461Z,100885.16
2023-03-04T13:13:37.270Z,100900.03
2023-03-04T13:16:29.368Z,100883.94
2023-03-04T13:18:55.952Z,100891.72
2023-03-04T13:21:25.695Z,100887.41
2023-03-04T13:23:53.614Z,100893.78
2023-03-04T13:26:35.260Z,100884.91
2023-03-04T13:29:13.891Z,100879.34
2023-03-04T13:31:59.661Z,100869.44
2023-03-04T13:34:47.397Z,100863.06
2023-03-04T13:37:34.631Z,100878.53
2023-03-04T13:40:29.535Z,100876.50
2023-03-04T13:42:56.123Z,100859.75
2023-03-04T13:45:37.218Z,100867.03
2023-03-04T13:48:23.164Z,100865.59
2023-03-04T13:50:51.582Z,100872.41
2023-03-04T13:53:40.789Z,100878.59
2023-03-04T13:56:25.378Z,100880.47
2023-03-04T13:59:04.140Z,100876.53
2023-03-04T14:01:32.922Z,100873.22
2023-03-04T14:04:00.469Z,100881.88
2023-03-04T14:06:29.718Z,100876.91
2023-03-04T14:08:57.316Z,100872.38
2023-03-04T14:11:41.756Z,100870.50
2023-03-04T14:14:16.792Z,100876.72
2023-03-04T14:16:52.609Z,100874.00
2023-03-04T14:19:36.070Z,100867.59
2023-03-04T14:22:02.805Z,100868.19
2023-03-04T14:24:30.996Z,100873.63
2023-03-04T14:27:11.623Z,100870.25
2023-03-04T14:29:38.165Z,100872.31
2023-03-04T14:32:05.815Z,100863.63
2023-03-04T14:34:36.510Z,100876.00
2023-03-04T14:37:15.549Z,100859.91
2023-03-04T14:39:43.341Z,100862.78
2023-03-04T14:42:14.233Z,100858.25
2023-03-04T14:44:48.809Z,100843.38
2023-03-04T14:47:30.569Z,100860.72
2023-03-04T14:49:57.505Z,100857.63
2023-03-04T14:52:39.639Z,100863.16
2023-03-04T14:55:15.202Z,100852.44
2023-03-04T14:57:44.129Z,100859.66
2023-03-04T15:00:22.646Z,100856.19
2023-03-04T15:02:54.552Z,100849.94
2023-03-04T15:05:28.798Z,100848.72
2023-03-04T15:07:58.039Z,100851.63
2023-03-04T15:10:35.394Z,100837.59
2023-03-04T15:13:03.957Z,100842.41
2023-03-04T15:15:42.664Z,100842.97
2023-03-04T15:18:30.058Z,100838.84
2023-03-04T15:20:58.425Z,100833.44
2023-03-04T15:23:26.073Z,100831.34
2023-03-04T15:26:04.573Z,100839.81
2023-03-04T15:28:37.014Z,100844.94
2023-03-04T15:31:05.123Z,100832.09
2023-03-04T15:33:32.012Z,100837.88
2023-03-04T15:36:01.963Z,100846.13
2023-03-04T15:38:29.881Z,100837.03
2023-03-04T15:40:59.574Z,100844.84
2023-03-04T15:43:26.210Z,100846.88
2023-03-04T15:45:53.583Z,100843.56
2023-03-04T15:48:20.697Z,100845.00
2023-03-04T15:50:59.233Z,100839.84
2023-03-04T15:53:33.045Z,100847.69
2023-03-04T15:56:00.656Z,100844.50
2023-03-04T15:58:27.239Z,100851.28
2023-03-04T16:00:53.825Z,100853.09
2023-03-04T16:03:24.091Z,100857.00
2023-03-04T16:05:51.940Z,100855.75
2023-03-04T16:08:21.511Z,100854.94
2023-03-04T16:10:48.613Z,100864.16
2023-03-04T16:13:18.086Z,100857.34
2023-03-04T16:15:44.894Z,100861.25
2023-03-04T16:20:47.441Z,100865.59
2023-03-04T16:23:21.794Z,100879.38
2023-03-04T16:25:51.272Z,100869.63
2023-03-04T16:28:18.107Z,100863.22
2023-03-04T16:30:44.584Z,100867.72
2023-03-04T16:33:11.580Z,100861.94
2023-03-04T16:35:39.603Z,100869.75
2023-03-04T16:38:17.205Z,100870.75
2023-03-04T16:40:43.750Z,100868.22
2023-03-04T16:43:13.177Z,100866.56
2023-03-04T16:45:40.308Z,100874.72
2023-03-04T16:48:06.861Z,100875.09
2023-03-04T16:50:36.159Z,100869.75
2023-03-04T16:53:03.794Z,100874.22
2023-03-04T16:55:31.669Z,100869.88
2023-03-04T16:57:59.048Z,100869.63
2023-03-04T17:00:28.246Z,100873.16
2023-03-04T17:02:57.619Z,100870.84
2023-03-04T17:05:27.088Z,100871.22
2023-03-04T17:07:53.676Z,100871.63
2023-03-04T17:10:20.828Z,100862.75
2023-03-04T17:12:47.609Z,100865.81
2023-03-04T17:15:14.577Z,100869.75
2023-03-04T17:17:42.759Z,100862.31
2023-03-04T17:20:13.328Z,100866.22
2023-03-04T17:22:40.163Z,100868.81
2023-03-04T17:25:07.088Z,100872.56
2023-03-04T17:27:33.621Z,100874.34
2023-03-04T22:32:36.139Z,100857.91
2023-03-04T22:35:02.812Z,100853.97
2023-03-04T22:37:29.289Z,100852.31
2023-03-04T22:39:57.116Z,100852.31
2023-03-04T22:42:23.571Z,100849.00
2023-03-04T22:44:50.018Z,100845.31
2023-03-04T22:47:16.565Z,100850.66
2023-03-04T22:49:43.065Z,100848.63
2023-03-04T22:52:09.593Z,100847.63
2023-03-04T22:54:36.024Z,100841.28
2023-03-04T22:57:02.471Z,100848.28
2023-03-04T22:59:28.947Z,100847.25
2023-03-04T23:01:57.156Z,100841.75
2023-03-04T23:04:23.895Z,100831.44
2023-03-04T23:06:50.346Z,100835.59
2023-03-04T23:09:16.770Z,100839.91
2023-03-04T23:11:43.467Z,100840.91
2023-03-04T23:14:11.644Z,100838.91
2023-03-04T23:16:43.157Z,100838.06
2023-03-04T23:19:15.244Z,100838.53
2023-03-04T23:21:42.478Z,100835.59
2023-03-04T23:24:10.675Z,100836.78
2023-03-04T23:26:39.937Z,100838.06
2023-03-04T23:29:09.261Z,100836.44
2023-03-04T23:31:36.328Z,100833.91
2023-03-04T23:34:03.882Z,100831.25
2023-03-04T23:36:36.045Z,100832.56
2023-03-04T23:39:03.608Z,100828.59
2023-03-04T23:41:31.021Z,100821.63
2023-03-04T23:43:59.032Z,100822.44
2023-03-04T23:46:26.856Z,100814.81
2023-03-04T23:48:54.166Z,100812.94
2023-03-04T23:51:23.927Z,100819.13
2023-03-04T23:53:50.422Z,100827.28
2023-03-04T23:56:23.197Z,100832.09
2023-03-04T23:58:50.466Z,100829.31
